createdAt,value
2023-05-01T00:00:59.610Z,73.51
2023-05-01T00:03:27.160Z,73.58
2023-05-01T00:06:00.942Z,73.52
2023-05-01T00:08:28.449Z,73.66
2023-05-01T00:10:56.044Z,74.10
2023-05-01T00:13:23.991Z,74.37
2023-05-01T00:15:51.821Z,77.17
2023-05-01T00:18:19.282Z,77.40
2023-05-01T00:20:46.536Z,77.75
2023-05-01T00:23:13.907Z,78.67
2023-05-01T00:25:41.860Z,79.77
2023-05-01T00:28:09.156Z,81.63
2023-05-01T00:30:36.584Z,80.99
2023-05-01T00:33:03.920Z,80.58
2023-05-01T00:35:31.330Z,80.19
2023-05-01T00:37:58.635Z,82.14
2023-05-01T00:40:26.290Z,82.73
2023-05-01T00:42:54.256Z,81.88
2023-05-01T00:45:21.597Z,83.28
2023-05-01T00:47:49.084Z,84.38
2023-05-01T00:50:16.736Z,86.14
2023-05-01T00:52:44.113Z,86.75
2023-05-01T00:55:12.220Z,87.53
2023-05-01T00:57:39.604Z,87.64
2023-05-01T01:00:10.728Z,89.84
2023-05-01T01:02:38.035Z,91.40
2023-05-01T01:05:05.750Z,90.90
2023-05-01T01:08:01.410Z,91.17
2023-05-01T01:11:13.350Z,92.79
2023-05-01T01:13:55.555Z,92.19
2023-05-01T01:16:48.768Z,93.97
2023-05-01T01:19:48.951Z,94.36
2023-05-01T01:22:23.990Z,94.75
2023-05-01T01:25:57.999Z,94.83
2023-05-01T01:29:12.615Z,95.20
2023-05-01T01:32:08.962Z,94.48
2023-05-01T01:34:47.162Z,94.29
2023-05-01T01:37:24.514Z,93.09
2023-05-01T01:40:04.759Z,93.67
2023-05-01T01:42:41.819Z,92.44
2023-05-01T01:45:20.899Z,94.64
2023-05-01T01:47:50.629Z,94.18
2023-05-01T01:50:22.096Z,93.08
2023-05-01T01:52:51.508Z,92.99
2023-05-01T01:55:24.869Z,93.75
2023-05-01T01:57:52.895Z,93.82
2023-05-01T02:00:21.848Z,92.79
2023-05-01T02:02:51.866Z,92.22
2023-05-01T02:05:21.348Z,90.94
2023-05-01T02:07:52.125Z,91.01
2023-05-01T02:10:22.259Z,90.24
2023-05-01T02:12:52.767Z,89.79
2023-05-01T02:15:21.074Z,89.02
2023-05-01T02:17:51.984Z,88.20
2023-05-01T02:20:21.048Z,87.51
2023-05-01T02:22:52.703Z,86.95
2023-05-01T02:25:20.738Z,86.80
2023-05-01T02:28:00.331Z,86.18
2023-05-01T02:30:27.953Z,85.78
2023-05-01T02:32:57.008Z,85.25
2023-05-01T02:35:24.315Z,84.33
2023-05-01T02:37:51.920Z,83.93
2023-05-01T02:40:19.438Z,83.34
2023-05-01T02:42:49.275Z,82.76
2023-05-01T02:45:20.534Z,82.50
2023-05-01T02:47:56.117Z,81.19
2023-05-01T02:50:24.604Z,80.51
2023-05-01T02:52:52.946Z,80.41
2023-05-01T02:55:32.370Z,79.81
2023-05-01T02:57:59.893Z,78.99
2023-05-01T03:00:27.637Z,78.86
2023-05-01T03:02:55.120Z,79.16
2023-05-01T03:05:22.788Z,77.92
2023-05-01T03:07:50.819Z,77.60
2023-05-01T03:10:18.196Z,77.18
2023-05-01T03:12:45.542Z,76.61
2023-05-01T03:15:13.072Z,76.61
2023-05-01T03:17:40.429Z,76.11
2023-05-01T03:20:10.444Z,75.91
2023-05-01T03:22:37.778Z,75.55
2023-05-01T03:25:05.753Z,75.38
2023-05-01T03:27:33.330Z,74.95
2023-05-01T03:30:00.593Z,74.88
2023-05-01T03:32:29.145Z,74.77
2023-05-01T03:34:56.868Z,74.54
2023-05-01T03:37:25.400Z,74.10
2023-05-01T03:39:53.647Z,73.74
2023-05-01T03:42:39.461Z,73.46
2023-05-01T03:45:11.199Z,72.85
2023-05-01T03:47:38.727Z,72.95
2023-05-01T03:50:08.458Z,72.82
2023-05-01T03:52:36.982Z,72.25
2023-05-01T03:55:04.973Z,72.01
2023-05-01T03:57:42.416Z,71.89
2023-05-01T04:00:11.276Z,71.76
2023-05-01T04:02:44.817Z,71.47
2023-05-01T04:05:15.818Z,71.16
2023-05-01T04:07:47.264Z,70.77
2023-05-01T04:10:14.617Z,71.14
2023-05-01T04:12:47.501Z,70.60
2023-05-01T04:15:15.874Z,70.15
2023-05-01T04:17:44.350Z,70.47
2023-05-01T04:20:11.929Z,70.94
2023-05-01T04:22:39.292Z,70.56
2023-05-01T04:25:08.383Z,70.32
2023-05-01T04:27:35.703Z,69.61
2023-05-01T04:30:03.904Z,69.87
2023-05-01T04:32:31.328Z,70.05
2023-05-01T04:34:58.923Z,70.12
2023-05-01T04:37:26.649Z,70.78
2023-05-01T04:39:55.274Z,70.74
2023-05-01T04:42:22.784Z,70.34
2023-05-01T04:44:50.094Z,69.90
2023-05-01T04:47:17.257Z,70.05
2023-05-01T04:49:45.487Z,69.60
2023-05-01T04:52:13.068Z,69.56
2023-05-01T04:55:00.556Z,69.97
2023-05-01T04:57:29.710Z,69.99
2023-05-01T04:59:57.923Z,69.54
2023-05-01T05:02:25.625Z,69.64
2023-05-01T05:04:53.894Z,69.62
2023-05-01T05:07:22.802Z,68.87
2023-05-01T05:10:19.051Z,68.21
2023-05-01T05:12:50.697Z,67.25
2023-05-01T05:15:17.983Z,68.19
2023-05-01T05:17:45.316Z,67.21
2023-05-01T05:20:14.867Z,66.68
2023-05-01T05:22:42.596Z,66.18
2023-05-01T05:25:22.065Z,66.76
2023-05-01T05:27:49.485Z,66.78
2023-05-01T05:30:16.886Z,66.21
2023-05-01T05:32:47.282Z,65.38
2023-05-01T05:35:15.469Z,63.67
2023-05-01T05:37:45.348Z,63.38
2023-05-01T05:40:13.651Z,63.00
2023-05-01T05:42:48.937Z,63.30
2023-05-01T05:45:16.257Z,62.79
2023-05-01T05:47:43.587Z,62.62
2023-05-01T05:50:11.026Z,62.21
2023-05-01T05:52:38.476Z,60.38
2023-05-01T05:55:06.619Z,60.58
2023-05-01T05:57:36.809Z,60.49
2023-05-01T06:00:09.543Z,59.69
2023-05-01T06:02:39.935Z,59.55
2023-05-01T06:05:09.791Z,57.86
2023-05-01T06:07:37.467Z,58.09
2023-05-01T06:10:05.676Z,56.65
2023-05-01T06:12:35.226Z,57.00
2023-05-01T06:15:06.842Z,56.19
2023-05-01T06:17:36.972Z,56.77
2023-05-01T06:20:05.795Z,56.28
2023-05-01T06:22:33.229Z,55.85
2023-05-01T06:25:12.511Z,56.14
2023-05-01T06:27:39.785Z,55.77
2023-05-01T06:30:09.148Z,55.15
2023-05-01T06:32:37.496Z,53.91
2023-05-01T06:35:05.334Z,54.23
2023-05-01T06:37:32.546Z,53.96
2023-05-01T06:40:00.036Z,53.45
2023-05-01T06:42:27.300Z,52.30
2023-05-01T06:44:56.298Z,52.04
2023-05-01T06:47:23.725Z,51.61
2023-05-01T06:49:51.052Z,50.75
2023-05-01T06:52:18.393Z,50.82
2023-05-01T06:54:45.675Z,50.51
2023-05-01T06:57:12.951Z,49.00
2023-05-01T06:59:40.482Z,49.97
2023-05-01T07:02:07.876Z,48.54
2023-05-01T07:04:35.182Z,49.09
2023-05-01T07:07:02.804Z,47.40
2023-05-01T07:09:30.222Z,46.95
2023-05-01T07:11:58.673Z,46.60
2023-05-01T07:14:25.948Z,46.76
2023-05-01T07:16:53.758Z,45.40
2023-05-01T07:19:21.165Z,45.70
2023-05-01T07:21:48.491Z,45.53
2023-05-01T07:24:16.440Z,44.58
2023-05-01T07:26:43.668Z,44.45
2023-05-01T07:29:11.472Z,43.99
2023-05-01T07:31:38.813Z,44.34
2023-05-01T07:34:06.119Z,45.40
2023-05-01T07:36:33.618Z,44.97
2023-05-01T07:39:00.987Z,44.87
2023-05-01T07:41:28.392Z,44.70
2023-05-01T07:43:58.436Z,44.21
2023-05-01T07:46:26.542Z,43.16
2023-05-01T07:48:53.954Z,43.55
2023-05-01T07:51:21.508Z,44.18
2023-05-01T07:53:49.517Z,43.79
2023-05-01T07:56:16.879Z,41.72
2023-05-01T07:58:44.281Z,41.06
2023-05-01T08:01:11.907Z,41.20
2023-05-01T08:03:39.273Z,40.94
2023-05-01T08:06:07.246Z,40.14
2023-05-01T08:08:34.694Z,40.08
2023-05-01T08:11:02.239Z,40.19
2023-05-01T08:13:29.556Z,40.06
2023-05-01T08:16:02.144Z,39.42
2023-05-01T08:18:30.612Z,38.84
2023-05-01T08:20:57.921Z,40.14
2023-05-01T08:23:25.117Z,40.55
2023-05-01T08:25:52.580Z,40.48
2023-05-01T08:28:20.727Z,40.08
2023-05-01T08:30:48.917Z,40.82
2023-05-01T08:33:16.571Z,39.62
2023-05-01T08:35:43.860Z,39.45
2023-05-01T08:38:12.104Z,39.11
2023-05-01T08:40:41.609Z,39.74
2023-05-01T08:43:09.228Z,39.65
2023-05-01T08:45:37.898Z,40.22
2023-05-01T08:48:10.173Z,39.64
2023-05-01T08:50:38.997Z,38.63
2023-05-01T08:53:07.763Z,37.31
2023-05-01T08:55:36.327Z,37.73
2023-05-01T08:58:04.756Z,36.66
2023-05-01T09:00:33.854Z,36.95
2023-05-01T09:03:02.522Z,37.76
2023-05-01T09:05:32.468Z,36.70
2023-05-01T09:08:00.464Z,36.74
2023-05-01T09:10:30.659Z,35.76
2023-05-01T09:13:06.536Z,36.58
2023-05-01T09:15:33.851Z,35.86
2023-05-01T09:18:03.585Z,36.07
2023-05-01T09:20:31.992Z,38.03
2023-05-01T09:22:59.441Z,38.02
2023-05-01T09:25:26.912Z,38.70
2023-05-01T09:27:56.710Z,36.94
2023-05-01T09:30:33.477Z,36.60
2023-05-01T09:33:09.530Z,37.02
2023-05-01T09:35:55.552Z,36.41
2023-05-01T09:38:28.581Z,35.21
2023-05-01T09:41:04.357Z,34.83
2023-05-01T09:43:31.844Z,34.97
2023-05-01T09:46:12.520Z,34.50
2023-05-01T09:48:39.929Z,34.82
2023-05-01T09:51:29.571Z,34.82
2023-05-01T09:53:59.939Z,34.88
2023-05-01T09:56:28.977Z,34.91
2023-05-01T09:58:59.609Z,35.22
2023-05-01T10:01:45.835Z,35.02
2023-05-01T10:04:13.938Z,35.74
2023-05-01T10:06:41.681Z,36.18
2023-05-01T10:09:16.857Z,35.07
2023-05-01T10:11:48.929Z,35.62
2023-05-01T10:14:16.221Z,36.52
2023-05-01T10:16:44.485Z,34.91
2023-05-01T10:19:13.311Z,34.52
2023-05-01T10:21:40.892Z,33.33
2023-05-01T10:24:09.607Z,33.97
2023-05-01T10:26:37.276Z,34.42
2023-05-01T10:29:04.646Z,35.33
2023-05-01T10:31:32.492Z,35.66
2023-05-01T10:34:01.445Z,34.67
2023-05-01T10:36:47.288Z,34.22
2023-05-01T10:39:34.920Z,34.68
2023-05-01T10:42:13.496Z,34.46
2023-05-01T10:44:42.232Z,33.42
2023-05-01T10:47:25.103Z,34.50
2023-05-01T10:50:08.579Z,32.42
2023-05-01T10:53:15.134Z,33.02
2023-05-01T10:55:52.841Z,32.64
2023-05-01T10:58:40.434Z,33.35
2023-05-01T11:01:33.209Z,32.44
2023-05-01T11:04:26.878Z,31.96
2023-05-01T11:07:05.462Z,32.94
2023-05-01T11:09:56.955Z,32.04
2023-05-01T11:12:45.463Z,33.10
2023-05-01T11:15:28.698Z,33.16
2023-05-01T11:17:57.377Z,32.28
2023-05-01T11:20:24.618Z,31.11
2023-05-01T11:22:54.456Z,31.33
2023-05-01T11:25:28.477Z,28.47
2023-05-01T11:28:01.806Z,28.68
2023-05-01T11:30:41.856Z,29.04
2023-05-01T11:33:10.769Z,28.94
2023-05-01T11:35:38.867Z,29.85
2023-05-01T11:38:06.324Z,28.64
2023-05-01T11:40:34.416Z,27.91
2023-05-01T11:43:09.070Z,28.30
2023-05-01T11:45:37.337Z,28.50
2023-05-01T11:48:15.664Z,27.21
2023-05-01T11:50:43.052Z,26.91
2023-05-01T11:53:15.263Z,27.19
2023-05-01T11:55:42.969Z,26.26
2023-05-01T11:58:10.804Z,26.27
2023-05-01T12:00:42.886Z,25.49
2023-05-01T12:03:14.945Z,24.76
2023-05-01T12:05:44.725Z,25.62
2023-05-01T12:08:13.018Z,25.38
2023-05-01T12:10:42.886Z,26.72
2023-05-01T12:13:13.148Z,26.20
2023-05-01T12:15:48.175Z,25.62
2023-05-01T12:18:17.354Z,26.42
2023-05-01T12:20:48.103Z,25.74
2023-05-01T12:23:16.752Z,25.74
2023-05-01T12:25:45.533Z,25.89
2023-05-01T12:28:19.238Z,24.97
2023-05-01T12:30:48.555Z,24.17
2023-05-01T12:33:18.879Z,25.13
2023-05-01T12:35:48.932Z,25.80
2023-05-01T12:38:21.439Z,24.45
2023-05-01T12:41:00.015Z,25.84
2023-05-01T12:43:35.884Z,26.47
2023-05-01T12:46:05.580Z,23.68
2023-05-01T12:48:33.744Z,24.66
2023-05-01T12:51:01.326Z,23.32
2023-05-01T12:53:29.393Z,22.44
2023-05-01T12:55:58.514Z,22.55
2023-05-01T12:58:38.430Z,23.55
2023-05-01T13:01:06.484Z,23.23
2023-05-01T13:03:36.242Z,23.48
2023-05-01T13:06:06.141Z,24.97
2023-05-01T13:08:37.279Z,26.39
2023-05-01T13:11:14.869Z,25.55
2023-05-01T13:13:47.272Z,23.92
2023-05-01T13:16:16.608Z,25.18
2023-05-01T13:18:52.297Z,24.03
2023-05-01T13:21:22.296Z,23.97
2023-05-01T13:23:55.383Z,24.57
2023-05-01T13:26:32.229Z,23.97
2023-05-01T13:29:03.161Z,23.72
2023-05-01T13:31:30.809Z,23.81
2023-05-01T13:33:59.233Z,24.99
2023-05-01T13:36:32.692Z,26.74
2023-05-01T13:39:00.259Z,25.01
2023-05-01T13:41:29.417Z,25.62
2023-05-01T13:43:57.335Z,25.00
2023-05-01T13:46:28.521Z,25.26
2023-05-01T13:49:07.609Z,25.37
2023-05-01T13:51:42.141Z,24.53
2023-05-01T13:54:11.003Z,23.95
2023-05-01T13:56:40.680Z,23.56
2023-05-01T13:59:08.899Z,23.61
2023-05-01T14:01:42.498Z,23.41
2023-05-01T14:04:12.653Z,23.94
2023-05-01T14:06:44.528Z,24.19
2023-05-01T14:09:11.903Z,23.43
2023-05-01T14:11:47.797Z,23.49
2023-05-01T14:14:16.584Z,22.92
2023-05-01T14:16:48.473Z,22.96
2023-05-01T14:19:17.724Z,23.07
2023-05-01T14:21:45.278Z,24.08
2023-05-01T14:24:15.554Z,23.00
2023-05-01T14:26:43.834Z,23.29
2023-05-01T14:29:27.378Z,22.52
2023-05-01T14:31:55.784Z,22.68
2023-05-01T14:34:25.049Z,22.76
2023-05-01T14:36:55.323Z,23.11
2023-05-01T14:39:22.841Z,22.41
2023-05-01T14:41:50.059Z,22.33
2023-05-01T14:44:20.294Z,22.99
2023-05-01T14:46:50.836Z,23.33
2023-05-01T14:49:24.759Z,22.95
2023-05-01T14:51:53.714Z,23.03
2023-05-01T14:54:21.155Z,22.91
2023-05-01T14:56:49.061Z,23.44
2023-05-01T14:59:16.682Z,22.84
2023-05-01T15:01:44.307Z,22.86
2023-05-01T15:04:12.084Z,22.42
2023-05-01T15:06:39.582Z,22.56
2023-05-01T15:09:06.987Z,23.94
2023-05-01T15:11:34.376Z,23.96
2023-05-01T15:14:02.095Z,23.20
2023-05-01T15:16:30.449Z,22.78
2023-05-01T15:18:58.240Z,23.07
2023-05-01T15:21:25.533Z,21.94
2023-05-01T15:23:52.970Z,21.76
2023-05-01T15:26:20.558Z,21.55
2023-05-01T15:28:47.924Z,21.57
2023-05-01T15:31:15.308Z,21.85
2023-05-01T15:33:42.751Z,21.90
2023-05-01T15:36:10.200Z,22.06
2023-05-01T15:38:37.543Z,22.48
2023-05-01T15:41:05.162Z,21.73
2023-05-01T15:43:32.874Z,20.88
2023-05-01T15:46:00.289Z,21.01
2023-05-01T15:48:27.740Z,20.90
2023-05-01T15:50:55.051Z,21.07
2023-05-01T15:53:22.927Z,21.42
2023-05-01T15:55:51.138Z,21.28
2023-05-01T15:58:22.525Z,20.96
2023-05-01T16:00:50.302Z,20.94
2023-05-01T16:03:18.130Z,21.32
2023-05-01T16:05:46.659Z,21.95
2023-05-01T16:08:14.113Z,22.42
2023-05-01T16:10:41.747Z,21.59
2023-05-01T16:13:09.136Z,22.08
2023-05-01T16:15:37.654Z,20.96
2023-05-01T16:18:05.878Z,20.99
2023-05-01T16:20:42.779Z,22.09
2023-05-01T16:23:11.885Z,22.37
2023-05-01T16:25:43.113Z,22.72
2023-05-01T16:28:12.456Z,24.27
2023-05-01T16:30:43.763Z,25.43
2023-05-01T16:33:20.475Z,27.35
2023-05-01T16:35:48.988Z,28.90
2023-05-01T16:38:18.092Z,28.33
2023-05-01T16:40:50.037Z,28.28
2023-05-01T16:43:17.510Z,28.65
2023-05-01T16:45:46.417Z,30.32
2023-05-01T16:48:24.342Z,30.64
2023-05-01T16:50:52.229Z,31.61
2023-05-01T16:53:21.056Z,32.96
2023-05-01T16:55:48.647Z,35.40
2023-05-01T16:58:16.353Z,37.42
2023-05-01T17:00:44.142Z,37.29
2023-05-01T17:03:13.335Z,36.40
2023-05-01T17:05:41.018Z,36.05
2023-05-01T17:08:08.430Z,38.80
2023-05-01T17:10:39.022Z,39.05
2023-05-01T17:13:07.341Z,39.14
2023-05-01T17:15:34.993Z,42.50
2023-05-01T17:18:02.557Z,42.72
2023-05-01T17:20:30.115Z,44.05
2023-05-01T17:22:58.312Z,43.31
2023-05-01T17:25:26.001Z,45.18
2023-05-01T17:27:54.277Z,46.30
2023-05-01T17:30:22.025Z,46.09
2023-05-01T17:32:49.828Z,47.14
2023-05-01T17:35:17.656Z,49.01
2023-05-01T17:37:45.334Z,49.45
2023-05-01T17:40:13.185Z,50.87
2023-05-01T17:42:41.420Z,51.67
2023-05-01T17:45:09.995Z,55.71
2023-05-01T17:47:42.261Z,54.65
2023-05-01T17:50:12.483Z,54.95
2023-05-01T17:52:41.636Z,54.38
2023-05-01T17:55:09.324Z,54.14
2023-05-01T17:57:39.740Z,56.19
2023-05-01T18:00:11.252Z,58.35
2023-05-01T18:02:44.103Z,58.72
2023-05-01T18:05:12.887Z,59.42
2023-05-01T18:07:40.751Z,58.41
2023-05-01T18:10:09.555Z,58.52
2023-05-01T18:12:36.977Z,58.44
2023-05-01T18:15:05.116Z,58.62
2023-05-01T18:17:32.495Z,60.33
2023-05-01T18:20:00.203Z,60.26
2023-05-01T18:22:28.654Z,61.20
2023-05-01T18:24:56.251Z,64.52
2023-05-01T18:27:25.503Z,63.31
2023-05-01T18:29:53.507Z,64.12
2023-05-01T18:32:21.182Z,61.67
2023-05-01T18:34:51.031Z,61.97
2023-05-01T18:37:18.494Z,63.51
2023-05-01T18:39:46.465Z,64.31
2023-05-01T18:42:13.914Z,65.46
2023-05-01T18:44:41.215Z,65.56
2023-05-01T18:47:08.559Z,63.77
2023-05-01T18:49:36.190Z,63.27
2023-05-01T18:52:04.025Z,65.17
2023-05-01T18:54:31.652Z,66.05
2023-05-01T18:56:59.029Z,62.17
2023-05-01T18:59:30.411Z,62.49
2023-05-01T19:01:58.131Z,60.95
2023-05-01T19:04:25.569Z,60.88
2023-05-01T19:06:52.956Z,62.73
2023-05-01T19:09:20.598Z,63.26
2023-05-01T19:11:48.631Z,63.92
2023-05-01T19:14:16.011Z,63.93
2023-05-01T19:16:43.579Z,65.31
2023-05-01T19:19:11.128Z,64.59
2023-05-01T19:21:38.486Z,62.53
2023-05-01T19:24:06.830Z,61.34
2023-05-01T19:26:34.303Z,62.08
2023-05-01T19:29:01.620Z,63.26
2023-05-01T19:31:29.079Z,63.76
2023-05-01T19:33:56.517Z,63.87
2023-05-01T19:36:24.030Z,66.39
2023-05-01T19:38:51.584Z,63.61
2023-05-01T19:41:18.959Z,64.69
2023-05-01T19:43:46.287Z,64.73
2023-05-01T19:46:13.907Z,65.12
2023-05-01T19:48:41.523Z,66.13
2023-05-01T19:51:08.797Z,63.97
2023-05-01T19:53:36.329Z,64.13
2023-05-01T19:56:03.807Z,66.06
2023-05-01T19:58:31.578Z,68.17
2023-05-01T20:01:01.777Z,67.77
2023-05-01T20:03:29.182Z,66.49
2023-05-01T20:05:56.548Z,65.01
2023-05-01T20:08:23.845Z,64.49
2023-05-01T20:10:51.153Z,64.72
2023-05-01T20:13:18.490Z,65.40
2023-05-01T20:15:45.913Z,66.51
2023-05-01T20:18:13.639Z,67.56
2023-05-01T20:20:41.340Z,67.72
2023-05-01T20:23:16.536Z,68.16
2023-05-01T20:25:45.913Z,68.30
2023-05-01T20:28:14.248Z,69.48
2023-05-01T20:30:44.136Z,70.44
2023-05-01T20:33:13.187Z,71.18
2023-05-01T20:35:40.714Z,72.71
2023-05-01T20:38:07.963Z,72.29
2023-05-01T20:40:39.411Z,72.81
2023-05-01T20:43:06.913Z,71.68
2023-05-01T20:45:34.464Z,74.46
2023-05-01T20:48:02.027Z,74.99
2023-05-01T20:50:29.389Z,74.49
2023-05-01T20:52:56.951Z,75.26
2023-05-01T20:55:24.463Z,75.08
2023-05-01T20:57:51.836Z,74.87
2023-05-01T21:00:19.204Z,75.56
2023-05-01T21:02:46.754Z,75.36
2023-05-01T21:05:15.739Z,75.47
2023-05-01T21:07:43.235Z,76.20
2023-05-01T21:10:13.748Z,76.74
2023-05-01T21:12:42.053Z,76.55
2023-05-01T21:15:11.096Z,78.51
2023-05-01T21:17:40.231Z,79.09
2023-05-01T21:20:15.191Z,78.63
2023-05-01T21:22:45.047Z,77.59
2023-05-01T21:25:15.388Z,78.13
2023-05-01T21:27:42.784Z,77.38
2023-05-01T21:30:15.506Z,78.20
2023-05-01T21:32:43.017Z,79.40
2023-05-01T21:35:11.493Z,78.79
2023-05-01T21:37:39.826Z,77.93
2023-05-01T21:40:12.066Z,78.62
2023-05-01T21:42:39.603Z,78.03
2023-05-01T21:45:09.404Z,78.74
2023-05-01T21:47:41.147Z,78.04
2023-05-01T21:50:12.298Z,77.99
2023-05-01T21:52:40.868Z,79.47
2023-05-01T21:55:10.524Z,79.90
2023-05-01T21:57:39.372Z,79.26
2023-05-01T22:00:10.856Z,78.93
2023-05-01T22:02:44.863Z,78.74
2023-05-01T22:05:17.822Z,78.70
2023-05-01T22:07:46.512Z,80.87
2023-05-01T22:10:16.628Z,78.73
2023-05-01T22:12:45.557Z,78.59
2023-05-01T22:15:14.986Z,79.81
2023-05-01T22:17:42.925Z,80.34
2023-05-01T22:20:10.907Z,79.41
2023-05-01T22:22:40.465Z,79.92
2023-05-01T22:25:09.519Z,80.07
2023-05-01T22:27:37.797Z,79.92
2023-05-01T22:30:05.906Z,80.12
2023-05-01T22:32:33.444Z,80.31
2023-05-01T22:35:00.859Z,80.64
2023-05-01T22:37:28.362Z,81.28
2023-05-01T22:39:55.573Z,80.03
2023-05-01T22:42:22.976Z,81.76
2023-05-01T22:44:50.429Z,80.76
2023-05-01T22:47:18.071Z,79.84
2023-05-01T22:49:45.455Z,79.86
2023-05-01T22:52:12.853Z,81.10
2023-05-01T22:54:40.245Z,79.46
2023-05-01T22:57:07.784Z,80.23
2023-05-01T22:59:35.166Z,80.83
2023-05-01T23:02:05.216Z,80.79
2023-05-01T23:04:32.888Z,81.68
2023-05-01T23:07:00.360Z,81.22
2023-05-01T23:09:31.578Z,82.32
2023-05-01T23:11:58.868Z,83.55
2023-05-01T23:14:26.418Z,83.62
2023-05-01T23:16:54.042Z,82.51
2023-05-01T23:19:23.994Z,82.90
2023-05-01T23:22:08.195Z,83.57
2023-05-01T23:24:42.731Z,84.11
2023-05-01T23:27:11.275Z,83.21
2023-05-01T23:29:40.664Z,84.16
2023-05-01T23:32:23.154Z,83.75
2023-05-01T23:34:51.865Z,83.01
2023-05-01T23:37:19.922Z,83.48
2023-05-01T23:39:48.028Z,83.54
2023-05-01T23:42:15.501Z,84.64
2023-05-01T23:44:42.895Z,85.28
2023-05-01T23:47:10.584Z,84.54
2023-05-01T23:49:38.094Z,82.75
2023-05-01T23:52:06.462Z,84.38
2023-05-01T23:54:33.931Z,84.76
2023-05-01T23:57:01.963Z,83.98
2023-05-01T23:59:29.420Z,84.44
